Time;durP1;ratioP1;P1;durP2;ratioP2;P2;SDS_P1;SDS_P2;PMS_P1;PMS_P2;Temp;Humidity;BMP_temperature;BMP_pressure;BME280_temperature;BME280_humidity;BME280_pressure;Samples;Min_cycle;Max_cycle;Signal;HPM_P1;HPM_P2
2021/07/09 00:02:54;;;;;;;13.55;11.02;;;19.40;99.90;;;;;;5070724;29;20210;-63
2021/07/09 00:05:28;;;;;;;11.65;10.45;;;19.40;99.90;;;;;;5087767;29;20233;-62
2021/07/09 00:08:00;;;;;;;11.82;10.73;;;19.40;99.90;;;;;;5071453;29;20201;-61
2021/07/09 00:10:34;;;;;;;13.20;10.00;;;19.40;99.90;;;;;;5070866;29;20237;-63
2021/07/09 00:13:06;;;;;;;10.93;9.93;;;19.40;99.90;;;;;;5071109;29;20510;-64
2021/07/09 00:15:39;;;;;;;15.95;10.45;;;19.40;99.90;;;;;;5070555;29;20702;-67
2021/07/09 00:18:11;;;;;;;10.75;9.65;;;19.40;99.90;;;;;;5087879;29;20202;-62
2021/07/09 00:20:43;;;;;;;12.50;9.75;;;19.40;99.90;;;;;;5070919;29;20261;-62
2021/07/09 00:23:15;;;;;;;12.50;9.55;;;19.50;99.90;;;;;;5087334;29;20552;-63
2021/07/09 00:25:49;;;;;;;14.70;10.02;;;19.40;99.90;;;;;;5087169;29;20241;-62
2021/07/09 00:28:22;;;;;;;13.60;8.65;;;19.50;99.90;;;;;;5087335;29;20225;-62
2021/07/09 00:30:54;;;;;;;9.95;8.52;;;19.40;99.90;;;;;;5087503;29;20221;-63
2021/07/09 00:33:26;;;;;;;13.05;8.88;;;19.40;99.90;;;;;;5070712;29;20214;-62
2021/07/09 00:35:57;;;;;;;10.27;9.27;;;19.40;99.90;;;;;;5070693;29;20241;-62
2021/07/09 00:38:32;;;;;;;10.15;9.10;;;19.40;99.90;;;;;;5087402;29;20221;-64
2021/07/09 00:41:04;;;;;;;10.38;8.88;;;19.50;99.90;;;;;;5087222;29;20245;-64
2021/07/09 00:43:36;;;;;;;12.13;8.77;;;19.40;99.90;;;;;;5087106;29;20238;-62
2021/07/09 00:46:08;;;;;;;9.93;8.68;;;19.50;99.90;;;;;;5087023;29;20274;-62
2021/07/09 00:48:41;;;;;;;10.13;9.10;;;19.50;99.90;;;;;;5070608;29;20221;-63
2021/07/09 00:51:13;;;;;;;8.90;8.00;;;19.50;99.90;;;;;;5070389;29;20213;-63
2021/07/09 00:53:47;;;;;;;11.63;8.50;;;19.50;99.90;;;;;;5055084;29;20225;-63
2021/07/09 00:56:20;;;;;;;10.13;8.88;;;19.50;99.90;;;;;;5054825;29;20285;-62
2021/07/09 00:58:56;;;;;;;10.90;8.65;;;19.50;99.90;;;;;;5086896;29;20213;-63
2021/07/09 01:01:28;;;;;;;10.57;9.10;;;19.50;99.90;;;;;;5086815;29;20233;-62
2021/07/09 01:04:03;;;;;;;9.90;8.90;;;19.50;99.90;;;;;;5070680;29;20217;-64
2021/07/09 01:06:35;;;;;;;12.63;9.57;;;19.50;99.90;;;;;;5086721;29;20233;-62
2021/07/09 01:09:09;;;;;;;12.77;9.23;;;19.60;99.90;;;;;;5054782;29;20210;-64
2021/07/09 01:11:45;;;;;;;12.63;9.40;;;19.50;99.90;;;;;;5086856;29;20251;-62
2021/07/09 01:14:23;;;;;;;12.30;9.40;;;19.60;99.90;;;;;;5088444;29;20199;-65
2021/07/09 01:16:55;;;;;;;12.38;8.93;;;19.60;99.90;;;;;;5059199;29;20238;-64
2021/07/09 01:19:27;;;;;;;14.52;8.55;;;19.60;99.90;;;;;;5090281;29;20237;-63
2021/07/09 01:21:59;;;;;;;15.40;9.30;;;19.60;99.90;;;;;;5073617;29;20241;-63
2021/07/09 01:24:31;;;;;;;10.77;9.05;;;19.60;99.90;;;;;;5089910;29;20258;-66
2021/07/09 01:27:05;;;;;;;10.52;8.82;;;19.60;99.90;;;;;;5073222;29;20234;-65
2021/07/09 01:29:39;;;;;;;11.93;8.38;;;19.60;99.90;;;;;;5090395;29;20533;-63
2021/07/09 01:32:12;;;;;;;12.15;9.10;;;19.60;99.90;;;;;;5090090;29;20245;-65
2021/07/09 01:34:44;;;;;;;11.93;9.30;;;19.60;99.90;;;;;;5090149;29;20201;-62
2021/07/09 01:37:17;;;;;;;12.05;8.75;;;19.60;99.90;;;;;;5073064;29;20680;-62
2021/07/09 01:39:49;;;;;;;10.38;8.27;;;19.60;99.90;;;;;;5073370;29;20197;-63
2021/07/09 01:42:22;;;;;;;10.57;9.57;;;19.60;99.90;;;;;;5089584;29;20234;-63
2021/07/09 01:44:54;;;;;;;16.02;10.32;;;19.60;99.90;;;;;;5090129;29;20286;-65
2021/07/09 01:47:26;;;;;;;13.00;9.90;;;19.60;99.90;;;;;;5089716;29;20234;-64
2021/07/09 01:50:03;;;;;;;14.38;11.05;;;19.60;99.90;;;;;;5058244;29;20205;-65
2021/07/09 01:52:35;;;;;;;15.25;11.60;;;19.60;99.90;;;;;;5072871;29;20545;-66
2021/07/09 01:55:08;;;;;;;12.15;10.98;;;19.60;99.90;;;;;;5089349;29;20228;-64
2021/07/09 01:57:40;;;;;;;18.90;12.40;;;19.60;99.90;;;;;;5057516;29;20249;-63
2021/07/09 02:00:16;;;;;;;14.38;10.88;;;19.70;99.90;;;;;;5089346;29;20206;-65
2021/07/09 02:02:50;;;;;;;17.77;12.40;;;19.70;99.90;;;;;;5089479;29;20226;-66
2021/07/09 02:05:24;;;;;;;15.30;11.85;;;19.70;99.90;;;;;;5089654;29;20489;-64
2021/07/09 02:07:56;;;;;;;15.93;12.85;;;19.70;99.90;;;;;;5072757;29;20281;-62
2021/07/09 02:10:31;;;;;;;18.15;14.55;;;19.70;99.90;;;;;;5089269;29;20201;-64
2021/07/09 02:13:04;;;;;;;22.75;14.63;;;19.70;99.90;;;;;;5089378;29;20245;-64
2021/07/09 02:15:39;;;;;;;19.15;14.77;;;19.70;99.90;;;;;;5089167;29;20210;-60
2021/07/09 02:18:13;;;;;;;21.10;14.60;;;19.70;99.90;;;;;;5088950;29;20236;-63
2021/07/09 02:20:46;;;;;;;17.98;13.80;;;19.70;99.90;;;;;;5089236;29;20289;-64
2021/07/09 02:23:18;;;;;;;18.67;14.93;;;19.70;99.90;;;;;;5072331;29;20234;-63
2021/07/09 02:25:50;;;;;;;19.48;14.38;;;19.80;99.90;;;;;;5088838;29;20206;-65
2021/07/09 02:28:22;;;;;;;17.35;14.18;;;19.80;99.90;;;;;;5056935;29;20241;-65
2021/07/09 02:30:56;;;;;;;16.70;14.13;;;19.80;99.90;;;;;;5072036;29;20198;-64
2021/07/09 02:33:29;;;;;;;15.95;12.95;;;19.80;99.90;;;;;;5056872;29;20277;-65
2021/07/09 02:36:01;;;;;;;16.35;12.88;;;19.80;99.90;;;;;;5089045;29;20225;-61
2021/07/09 02:38:33;;;;;;;16.35;12.75;;;19.90;99.90;;;;;;5088670;29;20643;-64
2021/07/09 02:41:05;;;;;;;18.35;12.00;;;19.80;99.90;;;;;;5088527;29;20221;-62
2021/07/09 02:43:37;;;;;;;13.40;11.52;;;19.90;99.90;;;;;;5088403;29;20277;-62
2021/07/09 02:46:09;;;;;;;12.23;11.07;;;19.90;99.90;;;;;;5056753;29;20217;-63
2021/07/09 02:48:41;;;;;;;14.20;12.10;;;19.90;99.90;;;;;;5071790;29;20249;-62
2021/07/09 02:51:16;;;;;;;16.17;12.30;;;20.00;99.90;;;;;;5088492;29;20190;-64
2021/07/09 02:53:50;;;;;;;14.43;11.77;;;20.00;99.90;;;;;;5088759;29;20564;-63
2021/07/09 02:56:24;;;;;;;12.60;11.27;;;20.00;99.90;;;;;;5072209;29;20541;-64
2021/07/09 02:58:58;;;;;;;14.80;11.07;;;20.00;99.90;;;;;;5056774;29;20363;-64
2021/07/09 03:01:30;;;;;;;15.10;11.30;;;20.00;99.90;;;;;;5072098;29;20202;-62
2021/07/09 03:04:04;;;;;;;15.45;10.70;;;20.00;99.90;;;;;;5088432;29;20251;-65
2021/07/09 03:06:37;;;;;;;20.15;11.80;;;20.00;99.90;;;;;;5072037;29;20225;-64
2021/07/09 03:09:12;;;;;;;15.77;11.85;;;20.00;99.90;;;;;;5088546;29;20234;-65
2021/07/09 03:11:44;;;;;;;15.13;12.88;;;20.10;99.90;;;;;;5088495;29;20213;-64
2021/07/09 03:14:17;;;;;;;29.65;13.25;;;20.00;99.90;;;;;;5088361;29;20245;-63
2021/07/09 03:16:49;;;;;;;52.20;15.50;;;20.00;99.90;;;;;;5087949;29;20245;-63
2021/07/09 03:19:21;;;;;;;155.40;20.95;;;20.10;99.90;;;;;;5088180;29;20238;-62
2021/07/09 03:21:55;;;;;;;116.45;19.90;;;20.10;99.90;;;;;;5088209;29;20221;-61
2021/07/09 03:24:29;;;;;;;495.38;34.95;;;20.10;99.90;;;;;;5087950;29;20256;-62
2021/07/09 03:27:02;;;;;;;260.08;26.50;;;20.10;99.90;;;;;;5088060;29;20205;-64
2021/07/09 03:29:34;;;;;;;82.47;18.58;;;20.10;99.90;;;;;;5089051;29;20574;-63
2021/07/09 03:32:10;;;;;;;116.13;20.77;;;20.20;99.90;;;;;;5056042;29;20221;-62
2021/07/09 03:34:42;;;;;;;143.95;21.20;;;20.20;99.90;;;;;;5087868;29;20241;-64
2021/07/09 03:37:14;;;;;;;56.72;19.58;;;20.20;99.90;;;;;;5070506;29;20287;-64
2021/07/09 03:39:46;;;;;;;27.95;18.38;;;20.20;99.90;;;;;;5071380;29;20234;-63
2021/07/09 03:42:18;;;;;;;43.75;20.70;;;20.30;99.90;;;;;;5055765;29;20288;-65
2021/07/09 03:44:50;;;;;;;32.75;19.17;;;20.30;99.90;;;;;;5087455;29;20234;-65
2021/07/09 03:47:22;;;;;;;36.67;21.23;;;20.30;99.90;;;;;;5071082;29;20641;-63
2021/07/09 03:49:56;;;;;;;67.40;21.70;;;20.30;99.90;;;;;;5071303;29;20558;-62
2021/07/09 03:52:28;;;;;;;32.78;20.15;;;20.30;99.90;;;;;;5056105;29;20212;-65
2021/07/09 03:55:00;;;;;;;30.08;19.85;;;20.30;99.90;;;;;;5055511;29;20340;-65
2021/07/09 03:57:32;;;;;;;27.58;17.90;;;20.40;99.90;;;;;;5087425;29;20225;-61
2021/07/09 04:00:08;;;;;;;28.63;18.58;;;20.40;99.90;;;;;;5087777;29;20554;-64
2021/07/09 04:02:43;;;;;;;27.65;18.33;;;20.40;99.90;;;;;;5087329;29;20198;-63
2021/07/09 04:05:17;;;;;;;24.20;18.48;;;20.40;99.90;;;;;;5070494;29;20229;-63
2021/07/09 04:07:50;;;;;;;27.02;18.83;;;20.40;99.90;;;;;;5087460;29;20210;-64
2021/07/09 04:10:22;;;;;;;32.38;20.95;;;20.40;99.90;;;;;;5087092;29;20252;-66
2021/07/09 04:12:55;;;;;;;35.58;24.77;;;20.40;99.90;;;;;;5055441;29;20218;-63
2021/07/09 04:15:26;;;;;;;37.28;23.98;;;20.40;99.90;;;;;;5070607;29;20248;-63
2021/07/09 04:18:01;;;;;;;43.22;26.80;;;20.40;99.90;;;;;;5070814;29;20229;-63
2021/07/09 04:20:33;;;;;;;51.75;31.45;;;20.40;99.90;;;;;;5087077;29;20234;-63
2021/07/09 04:23:05;;;;;;;54.50;34.35;;;20.40;99.90;;;;;;5070679;29;20302;-63
2021/07/09 04:25:37;;;;;;;65.13;40.55;;;20.40;99.90;;;;;;5070853;29;20226;-63
2021/07/09 04:28:09;;;;;;;68.95;42.35;;;20.40;99.90;;;;;;5070612;29;20194;-62
2021/07/09 04:30:44;;;;;;;87.63;49.70;;;20.40;99.90;;;;;;5087196;29;20264;-63
2021/07/09 04:33:17;;;;;;;85.78;48.65;;;20.40;99.90;;;;;;5087403;29;20217;-65
2021/07/09 04:35:52;;;;;;;83.32;48.03;;;20.40;99.90;;;;;;5076507;29;20235;-63
2021/07/09 04:38:26;;;;;;;88.13;51.22;;;20.50;99.90;;;;;;5051885;29;20242;-62
2021/07/09 04:40:58;;;;;;;93.65;52.80;;;20.50;99.90;;;;;;5073925;29;20225;-63
2021/07/09 04:43:30;;;;;;;98.75;53.45;;;20.50;99.90;;;;;;5070740;29;20229;-66
2021/07/09 04:46:02;;;;;;;89.18;50.65;;;20.60;99.90;;;;;;5087076;29;20290;-63
2021/07/09 04:48:34;;;;;;;82.55;49.25;;;20.70;99.90;;;;;;5070464;29;20214;-64
2021/07/09 04:51:06;;;;;;;82.00;46.17;;;20.60;99.90;;;;;;5091113;29;20234;-63
2021/07/09 04:53:38;;;;;;;75.95;44.47;;;20.60;99.90;;;;;;5080210;29;20195;-62
2021/07/09 04:56:10;;;;;;;64.63;41.40;;;20.70;99.90;;;;;;5071161;29;20234;-64
2021/07/09 04:58:42;;;;;;;64.43;39.88;;;20.70;99.90;;;;;;5055092;29;20234;-64
2021/07/09 05:01:15;;;;;;;56.00;39.60;;;20.70;99.90;;;;;;5055476;29;20234;-63
2021/07/09 05:03:47;;;;;;;50.88;36.10;;;20.70;99.90;;;;;;5071124;29;20226;-64
2021/07/09 05:06:21;;;;;;;49.47;36.13;;;20.60;99.90;;;;;;5071242;29;20234;-62
2021/07/09 05:08:55;;;;;;;52.13;36.63;;;20.70;99.90;;;;;;5039853;29;20194;-66
2021/07/09 05:11:30;;;;;;;53.95;36.10;;;20.70;99.90;;;;;;5071263;29;20238;-62
2021/07/09 05:14:08;;;;;;;54.85;37.70;;;20.70;99.90;;;;;;5040295;29;20645;-66
2021/07/09 05:16:43;;;;;;;48.72;34.28;;;20.70;99.90;;;;;;5070907;29;20238;-70
2021/07/09 05:19:15;;;;;;;49.78;34.40;;;20.70;99.90;;;;;;5071539;29;20619;-69
2021/07/09 05:21:47;;;;;;;52.92;36.15;;;20.70;99.90;;;;;;5024078;29;20241;-70
2021/07/09 05:24:19;;;;;;;49.38;35.38;;;20.70;99.90;;;;;;5054546;29;20247;-71
2021/07/09 05:26:57;;;;;;;51.97;37.13;;;20.70;99.90;;;;;;5070200;29;20273;-71
2021/07/09 05:29:29;;;;;;;43.22;31.85;;;20.60;99.90;;;;;;5054234;29;20603;-47
2021/07/09 17:11:27;;;;;;;14.75;12.73;;;24.80;99.90;;;;;;5309806;27;20547;-42
2021/07/09 17:13:59;;;;;;;19.55;15.15;;;24.40;99.90;;;;;;5309801;27;20202;-38
2021/07/09 17:16:33;;;;;;;18.35;14.43;;;24.00;99.90;;;;;;5310164;27;20226;-38
2021/07/09 17:19:05;;;;;;;17.45;14.57;;;23.70;99.90;;;;;;5311233;27;20518;-39
2021/07/09 17:21:39;;;;;;;18.75;15.23;;;23.50;99.90;;;;;;5311147;27;20229;-38
2021/07/09 17:24:28;;;;;;;15.07;13.57;;;23.30;99.90;;;;;;5318811;27;20201;-38
2021/07/09 17:27:05;;;;;;;19.85;14.75;;;23.10;99.90;;;;;;5317387;27;20557;-39
2021/07/09 17:29:37;;;;;;;16.60;13.88;;;23.00;99.90;;;;;;5319308;27;20233;-40
2021/07/09 17:32:09;;;;;;;14.90;13.40;;;22.80;99.90;;;;;;5342131;27;20219;-36
2021/07/09 17:34:42;;;;;;;16.80;14.75;;;22.70;99.90;;;;;;5308458;27;20252;-37
2021/07/09 17:37:21;;;;;;;19.58;14.82;;;22.60;99.90;;;;;;5314405;27;20682;-40
2021/07/09 17:39:56;;;;;;;15.95;14.35;;;22.50;99.90;;;;;;5311535;27;20199;-36
2021/07/09 17:42:34;;;;;;;16.98;14.65;;;22.50;99.90;;;;;;5321966;27;20652;-37
2021/07/09 17:45:06;;;;;;;17.00;15.10;;;22.40;99.90;;;;;;5309834;27;20210;-39
2021/07/09 17:47:38;;;;;;;18.65;16.45;;;22.30;99.90;;;;;;5314935;27;20223;-35
2021/07/09 17:50:11;;;;;;;17.05;14.43;;;22.20;99.90;;;;;;5316598;27;20222;-37
2021/07/09 17:52:46;;;;;;;16.20;13.93;;;22.10;99.90;;;;;;5309913;27;20219;-37
2021/07/09 17:55:19;;;;;;;15.02;13.45;;;22.00;99.90;;;;;;5313397;27;20218;-36
2021/07/09 17:57:54;;;;;;;13.20;11.80;;;21.90;99.90;;;;;;5307288;27;20210;-37
2021/07/09 18:00:26;;;;;;;13.90;10.98;;;21.80;99.90;;;;;;5311493;27;20516;-36
2021/07/09 18:03:01;;;;;;;11.60;9.82;;;21.70;99.90;;;;;;5310953;27;20222;-38
2021/07/09 18:05:33;;;;;;;11.80;9.68;;;21.60;99.90;;;;;;5312592;27;20213;-35
2021/07/09 18:08:05;;;;;;;12.32;10.00;;;21.40;99.90;;;;;;5307454;28;20219;-37
2021/07/09 18:10:37;;;;;;;11.45;8.88;;;21.30;99.90;;;;;;5292579;28;20237;-37
2021/07/09 18:13:10;;;;;;;9.23;7.85;;;21.20;99.90;;;;;;5311133;27;20226;-36
2021/07/09 18:15:42;;;;;;;9.32;7.53;;;21.10;99.90;;;;;;5310943;27;20190;-35
2021/07/09 18:18:15;;;;;;;8.15;7.35;;;20.90;99.90;;;;;;5307340;27;20580;-41
2021/07/09 18:20:47;;;;;;;8.88;7.32;;;20.80;99.90;;;;;;5307269;27;20222;-39
2021/07/09 18:23:23;;;;;;;9.82;6.95;;;20.80;99.90;;;;;;5296782;27;20288;-37
2021/07/09 18:25:56;;;;;;;9.27;7.28;;;20.70;99.90;;;;;;5291443;28;20571;-38
2021/07/09 18:28:28;;;;;;;10.32;6.47;;;20.70;99.90;;;;;;5295975;27;20234;-45
2021/07/09 18:31:00;;;;;;;9.07;6.47;;;20.60;99.90;;;;;;5323478;27;20231;-37
2021/07/09 18:33:33;;;;;;;9.75;7.15;;;20.60;99.90;;;;;;5295115;27;20191;-37
2021/07/09 18:36:07;;;;;;;7.85;6.90;;;20.50;99.90;;;;;;5295154;27;20191;-37
2021/07/09 18:38:39;;;;;;;11.27;7.90;;;20.50;99.90;;;;;;5298834;27;20223;-38
2021/07/09 18:41:16;;;;;;;10.75;8.15;;;20.50;99.90;;;;;;5279253;27;20203;-36
2021/07/09 18:43:48;;;;;;;14.10;7.97;;;20.40;99.90;;;;;;5279270;28;20276;-40
2021/07/09 18:46:22;;;;;;;11.05;7.53;;;20.40;99.90;;;;;;5276204;28;20214;-36
2021/07/09 18:48:54;;;;;;;9.95;8.02;;;20.30;99.90;;;;;;5293003;27;20219;-37
2021/07/09 18:51:27;;;;;;;12.15;7.63;;;20.20;99.90;;;;;;5278301;28;20215;-37
2021/07/09 18:54:01;;;;;;;11.82;7.65;;;20.20;99.90;;;;;;5292198;28;20659;-37
2021/07/09 18:56:34;;;;;;;10.23;7.05;;;20.10;99.90;;;;;;5297687;27;20193;-38
2021/07/09 18:59:06;;;;;;;9.88;6.90;;;20.00;99.90;;;;;;5273909;28;20584;-42
2021/07/09 19:01:38;;;;;;;12.05;7.05;;;20.00;99.90;;;;;;5292267;28;20199;-38
2021/07/09 19:04:11;;;;;;;12.75;7.05;;;19.90;99.90;;;;;;5292030;28;20223;-38
2021/07/09 19:06:43;;;;;;;9.98;7.38;;;19.80;99.90;;;;;;5292226;28;20611;-37
2021/07/09 19:09:23;;;;;;;11.52;7.28;;;19.70;99.90;;;;;;5290243;28;20243;-38
2021/07/09 19:11:55;;;;;;;10.90;6.13;;;19.70;99.90;;;;;;5272260;28;20203;-38
2021/07/09 19:14:28;;;;;;;12.02;7.10;;;19.60;99.90;;;;;;5294623;27;20233;-68
2021/07/09 19:17:03;;;;;;;10.25;6.57;;;19.60;99.90;;;;;;5292261;28;20202;-68
2021/07/09 19:19:35;;;;;;;12.70;8.25;;;19.60;99.90;;;;;;5291747;28;20231;-68
2021/07/09 19:22:08;;;;;;;13.63;8.65;;;19.50;99.90;;;;;;5292974;28;20475;-68
2021/07/09 19:24:43;;;;;;;10.18;7.28;;;19.40;99.90;;;;;;5291721;28;20220;-66
2021/07/09 19:27:15;;;;;;;12.23;8.40;;;19.40;99.90;;;;;;5292216;28;20311;-68
2021/07/09 19:29:47;;;;;;;11.38;7.45;;;19.30;99.90;;;;;;5292681;28;20276;-68
2021/07/09 19:32:19;;;;;;;11.02;7.78;;;19.30;99.90;;;;;;5291388;28;20497;-67
2021/07/09 19:34:52;;;;;;;9.48;7.32;;;19.20;99.90;;;;;;5292018;28;20224;-68
2021/07/09 19:37:26;;;;;;;10.90;7.40;;;19.20;99.90;;;;;;5275271;28;20203;-69
2021/07/09 19:39:58;;;;;;;12.65;7.90;;;19.20;99.90;;;;;;5291941;28;20292;-70
2021/07/09 19:42:30;;;;;;;10.77;7.45;;;19.10;99.90;;;;;;5291949;28;20199;-67
2021/07/09 19:45:05;;;;;;;11.07;7.68;;;19.10;99.90;;;;;;5299705;27;20563;-67
2021/07/09 19:47:40;;;;;;;10.85;7.65;;;19.10;99.90;;;;;;5314021;27;20206;-66
2021/07/09 19:50:14;;;;;;;10.88;7.78;;;19.00;99.90;;;;;;5312965;27;20233;-71
2021/07/09 19:52:47;;;;;;;10.85;8.13;;;19.00;99.90;;;;;;5313935;27;20226;-71
2021/07/09 19:55:22;;;;;;;11.85;8.10;;;19.00;99.90;;;;;;5313414;27;20222;-69
2021/07/09 19:57:54;;;;;;;15.18;8.73;;;19.00;99.90;;;;;;5312808;27;20278;-66
2021/07/09 20:00:26;;;;;;;11.15;8.25;;;19.00;99.90;;;;;;5313243;27;20239;-69
2021/07/09 20:03:02;;;;;;;9.57;7.45;;;18.90;99.90;;;;;;5313206;27;20202;-67
2021/07/09 20:05:35;;;;;;;11.90;7.93;;;18.90;99.90;;;;;;5312840;27;20226;-67
2021/07/09 20:08:10;;;;;;;10.45;8.40;;;18.90;99.90;;;;;;5313992;27;20607;-70
2021/07/09 20:10:44;;;;;;;10.98;8.65;;;18.90;99.90;;;;;;5312517;27;20269;-67
2021/07/09 20:13:16;;;;;;;12.93;8.90;;;18.90;99.90;;;;;;5301199;27;20282;-69
2021/07/09 20:15:51;;;;;;;13.32;8.32;;;18.90;99.90;;;;;;5325294;27;20230;-71
2021/07/09 20:18:22;;;;;;;11.52;8.70;;;18.90;99.90;;;;;;5291157;28;20602;-69
2021/07/09 20:20:55;;;;;;;12.75;9.45;;;18.80;99.90;;;;;;5291506;28;20209;-66
2021/07/09 20:23:27;;;;;;;14.55;8.68;;;18.90;99.90;;;;;;5291685;28;20187;-69
2021/07/09 20:25:59;;;;;;;12.35;8.98;;;18.80;99.90;;;;;;5291587;28;20225;-66
2021/07/09 20:28:33;;;;;;;14.65;9.27;;;18.80;99.90;;;;;;5290252;28;20235;-69
2021/07/09 20:31:05;;;;;;;13.18;8.70;;;18.80;99.90;;;;;;5290598;28;20220;-69
2021/07/09 20:33:38;;;;;;;14.98;9.07;;;18.80;99.90;;;;;;5290258;28;20226;-67
2021/07/09 20:36:15;;;;;;;12.68;9.60;;;18.80;99.90;;;;;;5268494;28;20208;-70
2021/07/09 20:38:47;;;;;;;13.98;9.48;;;18.80;99.90;;;;;;5269186;28;20204;-66
2021/07/09 20:41:21;;;;;;;13.02;10.25;;;18.70;99.90;;;;;;5269347;28;20215;-64
2021/07/09 20:43:55;;;;;;;16.58;9.63;;;18.70;99.90;;;;;;5269091;28;20191;-68
2021/07/09 20:46:27;;;;;;;15.63;10.40;;;18.70;99.90;;;;;;5269048;28;20211;-63
2021/07/09 20:49:00;;;;;;;12.80;9.70;;;18.70;99.90;;;;;;5268957;28;20215;-66
2021/07/09 20:51:37;;;;;;;18.60;10.48;;;18.60;99.90;;;;;;5269175;28;20223;-69
2021/07/09 20:54:09;;;;;;;19.15;9.82;;;18.60;99.90;;;;;;5269273;28;20484;-69
2021/07/09 20:56:43;;;;;;;12.32;9.30;;;18.60;99.90;;;;;;5267930;28;20204;-68
2021/07/09 20:59:15;;;;;;;17.23;9.43;;;18.50;99.90;;;;;;5267819;28;20209;-66
2021/07/09 21:01:49;;;;;;;13.93;9.45;;;18.50;99.90;;;;;;5268100;28;20614;-69
2021/07/09 21:04:22;;;;;;;15.63;9.80;;;18.40;99.90;;;;;;5269188;28;20214;-68
2021/07/09 21:06:54;;;;;;;15.50;10.27;;;18.40;99.90;;;;;;5269154;28;20204;-67
2021/07/09 21:09:26;;;;;;;13.70;9.38;;;18.40;99.90;;;;;;5284941;28;20247;-68
2021/07/09 21:11:58;;;;;;;13.05;9.25;;;18.40;99.90;;;;;;5269267;28;20228;-69
2021/07/09 21:14:30;;;;;;;11.95;9.35;;;18.30;99.90;;;;;;5269216;28;20507;-68
2021/07/09 21:17:02;;;;;;;12.23;9.50;;;18.30;99.90;;;;;;5267965;28;20200;-65
2021/07/09 21:19:36;;;;;;;12.68;9.43;;;18.30;99.90;;;;;;5268888;28;20525;-69
2021/07/09 21:22:08;;;;;;;13.50;8.67;;;18.20;99.90;;;;;;5269280;28;20291;-66
2021/07/09 21:24:43;;;;;;;12.67;9.13;;;18.20;99.90;;;;;;5268939;28;20258;-69
2021/07/09 21:27:15;;;;;;;16.27;9.48;;;18.20;99.90;;;;;;5269097;28;20520;-68
2021/07/09 21:29:47;;;;;;;14.25;9.52;;;18.20;99.90;;;;;;5268775;28;20212;-69
2021/07/09 21:32:20;;;;;;;14.40;9.47;;;18.10;99.90;;;;;;5269151;28;20220;-72
2021/07/09 21:34:52;;;;;;;13.93;9.93;;;18.10;99.90;;;;;;5268303;28;20517;-68
2021/07/09 21:37:24;;;;;;;12.70;9.02;;;18.10;99.90;;;;;;5268297;28;20196;-70
2021/07/09 21:39:56;;;;;;;14.93;9.80;;;18.10;99.90;;;;;;5268255;28;20204;-66
2021/07/09 21:42:28;;;;;;;12.82;9.27;;;18.00;99.90;;;;;;5268343;28;20573;-66
2021/07/09 21:45:01;;;;;;;12.10;9.70;;;18.00;99.90;;;;;;5268750;28;20316;-66
2021/07/09 21:47:33;;;;;;;13.53;9.67;;;18.00;99.90;;;;;;5268062;28;20242;-66
2021/07/09 21:50:06;;;;;;;13.23;9.68;;;18.00;99.90;;;;;;5268927;28;20274;-68
2021/07/09 21:52:39;;;;;;;12.33;9.73;;;18.00;99.90;;;;;;5267916;28;20707;-66
2021/07/09 21:55:11;;;;;;;13.30;9.97;;;17.90;99.90;;;;;;5250700;28;20224;-65
2021/07/09 21:57:43;;;;;;;13.63;9.50;;;17.90;99.90;;;;;;5271363;28;20210;-67
2021/07/09 22:00:18;;;;;;;13.20;10.45;;;17.90;99.90;;;;;;5272810;28;20836;-66
2021/07/09 22:02:51;;;;;;;16.45;9.73;;;17.90;99.90;;;;;;5272788;28;20211;-68
2021/07/09 22:05:23;;;;;;;14.30;10.03;;;17.90;99.90;;;;;;5272717;28;20256;-67
2021/07/09 22:07:55;;;;;;;12.97;8.77;;;17.90;99.90;;;;;;5255025;28;20745;-67
2021/07/09 22:10:27;;;;;;;12.23;8.80;;;17.90;99.90;;;;;;5271256;28;20734;-67
2021/07/09 22:13:02;;;;;;;11.98;8.75;;;18.00;99.90;;;;;;5272935;28;20260;-67
2021/07/09 22:15:34;;;;;;;12.18;8.88;;;18.00;99.90;;;;;;5272646;28;20315;-68
2021/07/09 22:18:07;;;;;;;12.60;8.88;;;17.90;99.90;;;;;;5271219;28;20215;-66
2021/07/09 22:20:39;;;;;;;12.43;8.00;;;17.90;99.90;;;;;;5270776;28;20228;-64
2021/07/09 22:23:11;;;;;;;12.53;8.30;;;17.90;99.90;;;;;;5274196;27;20204;-69
2021/07/09 22:25:43;;;;;;;9.43;7.63;;;17.90;99.90;;;;;;5291811;27;20228;-66
2021/07/09 22:28:15;;;;;;;10.90;7.37;;;17.90;99.90;;;;;;5291606;28;20236;-67
2021/07/09 22:30:47;;;;;;;9.40;7.47;;;17.90;99.90;;;;;;5296514;27;20238;-67
2021/07/09 22:33:20;;;;;;;8.07;7.23;;;17.90;99.90;;;;;;5293050;28;20215;-67
2021/07/09 22:35:52;;;;;;;10.37;7.50;;;17.90;99.90;;;;;;5293815;28;20227;-68
2021/07/09 22:38:24;;;;;;;12.15;8.18;;;17.90;99.90;;;;;;5293645;28;20216;-68
2021/07/09 22:40:56;;;;;;;11.07;7.07;;;17.90;99.90;;;;;;5292958;28;20550;-67
2021/07/09 22:43:28;;;;;;;9.40;7.40;;;17.90;99.90;;;;;;5292698;28;20208;-67
2021/07/09 22:46:00;;;;;;;10.47;8.00;;;17.90;99.90;;;;;;5292578;28;20369;-69
2021/07/09 22:48:32;;;;;;;11.30;8.37;;;17.90;99.90;;;;;;5293322;28;20217;-65
2021/07/09 22:51:04;;;;;;;12.13;7.80;;;17.90;99.90;;;;;;5295745;27;20223;-64
2021/07/09 22:53:37;;;;;;;17.37;9.50;;;17.90;99.90;;;;;;5294053;27;20524;-65
2021/07/09 22:56:11;;;;;;;14.37;9.27;;;17.90;99.90;;;;;;5292855;27;20234;-64
2021/07/09 22:58:43;;;;;;;12.13;9.20;;;17.90;99.90;;;;;;5308508;27;20205;-68
2021/07/09 23:01:18;;;;;;;11.27;8.23;;;17.90;99.90;;;;;;5300400;27;20536;-66
2021/07/09 23:03:50;;;;;;;14.93;9.57;;;17.90;99.90;;;;;;5314824;27;20287;-65
2021/07/09 23:06:23;;;;;;;14.90;9.37;;;17.90;99.90;;;;;;5295024;27;20223;-64
2021/07/09 23:08:56;;;;;;;15.67;10.17;;;17.80;99.90;;;;;;5310132;27;20195;-65
2021/07/09 23:11:28;;;;;;;14.33;9.40;;;17.90;99.90;;;;;;5296337;27;20232;-66
2021/07/09 23:14:00;;;;;;;14.63;10.17;;;17.90;99.90;;;;;;5302422;27;20195;-67
2021/07/09 23:16:32;;;;;;;16.27;10.30;;;17.80;99.90;;;;;;5291568;28;20219;-65
2021/07/09 23:19:05;;;;;;;14.70;10.23;;;17.80;99.90;;;;;;5291748;28;20199;-65
2021/07/09 23:21:37;;;;;;;15.17;9.27;;;17.80;99.90;;;;;;5301232;27;20223;-66
2021/07/09 23:24:11;;;;;;;14.70;10.13;;;17.80;99.90;;;;;;5313928;27;20267;-63
2021/07/09 23:26:43;;;;;;;16.07;11.37;;;17.80;99.90;;;;;;5313898;27;20231;-67
2021/07/09 23:29:18;;;;;;;14.70;10.70;;;17.80;99.90;;;;;;5313385;27;20207;-63
2021/07/09 23:31:50;;;;;;;18.87;11.47;;;17.80;99.90;;;;;;5313242;27;20236;-64
2021/07/09 23:34:22;;;;;;;19.37;11.03;;;17.70;99.90;;;;;;5313209;27;20512;-62
2021/07/09 23:36:56;;;;;;;15.53;11.67;;;17.80;99.90;;;;;;5330126;27;20203;-66
2021/07/09 23:39:30;;;;;;;22.13;11.80;;;17.80;99.90;;;;;;5313736;27;20199;-65
2021/07/09 23:42:02;;;;;;;20.07;13.97;;;17.80;99.90;;;;;;5313830;27;20225;-64
2021/07/09 23:44:35;;;;;;;20.73;14.03;;;17.80;99.90;;;;;;5312702;27;20210;-63
2021/07/09 23:47:09;;;;;;;23.53;14.70;;;17.90;99.90;;;;;;5347302;27;20548;-63
2021/07/09 23:49:45;;;;;;;23.20;15.87;;;17.90;99.90;;;;;;5312768;27;20199;-66
2021/07/09 23:52:17;;;;;;;21.10;15.70;;;18.00;99.90;;;;;;5312388;27;20234;-68
2021/07/09 23:54:51;;;;;;;22.67;15.17;;;18.00;99.90;;;;;;5313392;27;20206;-66
2021/07/09 23:57:23;;;;;;;24.10;15.60;;;18.00;99.90;;;;;;5313184;27;20231;-69
2021/07/09 23:59:55;;;;;;;24.93;16.57;;;18.10;99.90;;;;;;5312438;27;20194;-64
